Beaumerit — PBMF — position and weather

sailwx.info

Track history (hours):
 
Tides and Currents Weather Stations Pressure Air Temp Water Temp Dewpoint Dewpoint Depression Visibility Wind Speed Wind Dir Waves Ship Positions

Beaumerit

Last reported at 2017-Dec-16 13:10 UTC. Time now 2017-Dec-17 06:27 UTC.
Position N 54°50' W 001°20'.

Length 90 m; draft 6.1 m.

MMSI: 245615000.

Date/timePositionNaut miles runAvg speedWind from/ knotsBaromVisibWave heightAir tempDewpointWater temp
2017-Dec-16 13:10N 54°50' W 001°20'0 0.0
2017-Dec-16 12:56N 54°50' W 001°20'0 0.0
2017-Dec-15 13:27N 54°50' W 001°20'1 1.8
2017-Dec-15 13:00N 54°50' W 001°18'3 6.5
2017-Dec-15 12:30N 54°48' W 001°14'4 8.1
2017-Dec-15 12:00N 54°46' W 001°08'4 8.8
2017-Dec-15 11:30N 54°43' W 001°02'24 8.3
2017-Dec-15 08:35N 54°28' W 000°29'1 8.8
2017-Dec-15 08:30N 54°28' W 000°28'4 8.9
2017-Dec-15 08:00N 54°24' W 000°24'5 9.0
2017-Dec-15 07:30N 54°20' W 000°19'5 9.1
2017-Dec-15 07:00N 54°17' W 000°15'4 8.6
2017-Dec-15 06:30N 54°13' W 000°10'4 8.7
2017-Dec-15 06:00N 54°10' W 000°06'3 6.3
2017-Dec-15 05:30N 54°07' W 000°02'3 6.5
2017-Dec-15 05:00N 54°05' E 000°00'3 6.7
2017-Dec-15 04:30N 54°02' E 000°03'3 6.7
2017-Dec-15 04:00N 53°59' E 000°06'74 7.8
2017-Dec-14 18:31N 53°00' E 001°22'4 8.9
2017-Dec-14 18:00N 52°57' E 001°28'4 8.6
2017-Dec-14 17:30N 52°54' E 001°34'4 8.5
2017-Dec-14 17:00N 52°52' E 001°39'4 8.7
2017-Dec-14 16:30N 52°49' E 001°45'5 9.0
2017-Dec-14 16:00N 52°47' E 001°51'9 9.0
2017-Dec-14 15:00N 52°38' E 001°54'2611.8
2017-Dec-14 12:48N 52°12' E 001°51'412.3
2017-Dec-14 12:30N 52°08' E 001°51'612.5
2017-Dec-14 12:00N 52°02' E 001°51'612.6
2017-Dec-14 11:30N 51°56' E 001°49'611.9
2017-Dec-14 11:00N 51°50' E 001°49'611.8
2017-Dec-14 10:30N 51°44' E 001°50'611.5
2017-Dec-14 10:00N 51°38' E 001°49'611.2
2017-Dec-14 09:30N 51°33' E 001°48'511.0
2017-Dec-14 09:00N 51°27' E 001°45'510.9
2017-Dec-14 08:30N 51°22' E 001°42'611.9
2017-Dec-14 08:00N 51°16' E 001°40'611.1
2017-Dec-14 07:30N 51°11' E 001°36'4 8.8
2017-Dec-14 07:00N 51°07' E 001°39'5 9.9
2017-Dec-14 06:30N 51°03' E 001°35'510.1
2017-Dec-14 06:00N 50°59' E 001°30'5 9.5
2017-Dec-14 05:30N 50°55' E 001°25'5 9.0
2017-Dec-14 04:57N 50°51' E 001°23'59 8.7
2017-Dec-13 22:14N 50°22' E 000°03'210.2
2017-Dec-13 22:00N 50°21' W 000°01'1010.1
2017-Dec-13 21:02N 50°19' W 000°16'6411.9
2017-Dec-13 15:38N 50°01' W 001°52'513.0
2017-Dec-13 15:15N 49°59' W 001°59'312.5
2017-Dec-13 15:00N 49°58' W 002°04'3311.1
2017-Dec-13 12:00N 49°48' W 002°53'10110.1
2017-Dec-13 02:01N 48°57' W 005°07'110.8
2017-Dec-13 01:55N 48°56' W 005°08'411.0
2017-Dec-13 01:30N 48°54' W 005°14'611.3
2017-Dec-13 01:00N 48°51' W 005°21'  
2017-Dec-10 02:57N 39°24' W 009°50'510.4
2017-Dec-10 02:30N 39°19' W 009°50'510.7
2017-Dec-10 02:00N 39°14' W 009°50'510.6
2017-Dec-10 01:30N 39°09' W 009°50'510.7
2017-Dec-10 01:00N 39°03' W 009°50'510.5
2017-Dec-10 00:30N 38°58' W 009°50'510.5
2017-Dec-10 00:00N 38°53' W 009°51'510.3
2017-Dec-09 23:30N 38°48' W 009°50'510.4
2017-Dec-09 23:00N 38°43' W 009°50'510.6
2017-Dec-09 22:30N 38°37' W 009°49'510.6
2017-Dec-09 22:00N 38°32' W 009°47'510.6
2017-Dec-09 21:30N 38°27' W 009°46'510.4
2017-Dec-09 21:00N 38°22' W 009°44'510.6
2017-Dec-09 20:30N 38°17' W 009°42'610.8
2017-Dec-09 19:57N 38°11' W 009°41'510.8
2017-Dec-09 19:30N 38°06' W 009°39'510.7
2017-Dec-09 19:00N 38°01' W 009°37'510.6
2017-Dec-09 18:29N 37°56' W 009°36'510.4
2017-Dec-09 18:00N 37°51' W 009°35'510.5
2017-Dec-09 17:29N 37°46' W 009°33'  
Track history (hours):
 
Tides and Currents Weather Stations Pressure Air Temp Water Temp Dewpoint Dewpoint Depression Visibility Wind Speed Wind Dir Waves Ship Positions

Beaumerit

Last reported at 2017-Dec-16 13:10 UTC. Time now 2017-Dec-17 06:27 UTC.
Position N 54°50' W 001°20'.

Length 90 m; draft 6.1 m.

MMSI: 245615000.

Date/timePositionNaut miles runAvg speedWind from/ knotsBaromVisibWave heightAir tempDewpointWater temp
2017-Dec-16 13:10N 54°50' W 001°20'0 0.0
2017-Dec-16 12:56N 54°50' W 001°20'0 0.0
2017-Dec-15 13:27N 54°50' W 001°20'1 1.8
2017-Dec-15 13:00N 54°50' W 001°18'3 6.5
2017-Dec-15 12:30N 54°48' W 001°14'4 8.1
2017-Dec-15 12:00N 54°46' W 001°08'4 8.8
2017-Dec-15 11:30N 54°43' W 001°02'24 8.3
2017-Dec-15 08:35N 54°28' W 000°29'1 8.8
2017-Dec-15 08:30N 54°28' W 000°28'4 8.9
2017-Dec-15 08:00N 54°24' W 000°24'5 9.0
2017-Dec-15 07:30N 54°20' W 000°19'5 9.1
2017-Dec-15 07:00N 54°17' W 000°15'4 8.6
2017-Dec-15 06:30N 54°13' W 000°10'4 8.7
2017-Dec-15 06:00N 54°10' W 000°06'3 6.3
2017-Dec-15 05:30N 54°07' W 000°02'3 6.5
2017-Dec-15 05:00N 54°05' E 000°00'3 6.7
2017-Dec-15 04:30N 54°02' E 000°03'3 6.7
2017-Dec-15 04:00N 53°59' E 000°06'74 7.8
2017-Dec-14 18:31N 53°00' E 001°22'4 8.9
2017-Dec-14 18:00N 52°57' E 001°28'4 8.6
2017-Dec-14 17:30N 52°54' E 001°34'4 8.5
2017-Dec-14 17:00N 52°52' E 001°39'4 8.7
2017-Dec-14 16:30N 52°49' E 001°45'5 9.0
2017-Dec-14 16:00N 52°47' E 001°51'9 9.0
2017-Dec-14 15:00N 52°38' E 001°54'2611.8
2017-Dec-14 12:48N 52°12' E 001°51'412.3
2017-Dec-14 12:30N 52°08' E 001°51'612.5
2017-Dec-14 12:00N 52°02' E 001°51'612.6
2017-Dec-14 11:30N 51°56' E 001°49'611.9
2017-Dec-14 11:00N 51°50' E 001°49'611.8
2017-Dec-14 10:30N 51°44' E 001°50'611.5
2017-Dec-14 10:00N 51°38' E 001°49'611.2
2017-Dec-14 09:30N 51°33' E 001°48'511.0
2017-Dec-14 09:00N 51°27' E 001°45'510.9
2017-Dec-14 08:30N 51°22' E 001°42'611.9
2017-Dec-14 08:00N 51°16' E 001°40'611.1
2017-Dec-14 07:30N 51°11' E 001°36'4 8.8
2017-Dec-14 07:00N 51°07' E 001°39'5 9.9
2017-Dec-14 06:30N 51°03' E 001°35'510.1
2017-Dec-14 06:00N 50°59' E 001°30'5 9.5
2017-Dec-14 05:30N 50°55' E 001°25'5 9.0
2017-Dec-14 04:57N 50°51' E 001°23'59 8.7
2017-Dec-13 22:14N 50°22' E 000°03'210.2
2017-Dec-13 22:00N 50°21' W 000°01'1010.1
2017-Dec-13 21:02N 50°19' W 000°16'6411.9
2017-Dec-13 15:38N 50°01' W 001°52'513.0
2017-Dec-13 15:15N 49°59' W 001°59'312.5
2017-Dec-13 15:00N 49°58' W 002°04'3311.1
2017-Dec-13 12:00N 49°48' W 002°53'10110.1
2017-Dec-13 02:01N 48°57' W 005°07'110.8
2017-Dec-13 01:55N 48°56' W 005°08'411.0
2017-Dec-13 01:30N 48°54' W 005°14'611.3
2017-Dec-13 01:00N 48°51' W 005°21'  
2017-Dec-10 02:57N 39°24' W 009°50'510.4
2017-Dec-10 02:30N 39°19' W 009°50'510.7
2017-Dec-10 02:00N 39°14' W 009°50'510.6
2017-Dec-10 01:30N 39°09' W 009°50'510.7
2017-Dec-10 01:00N 39°03' W 009°50'510.5
2017-Dec-10 00:30N 38°58' W 009°50'510.5
2017-Dec-10 00:00N 38°53' W 009°51'510.3
2017-Dec-09 23:30N 38°48' W 009°50'510.4
2017-Dec-09 23:00N 38°43' W 009°50'510.6
2017-Dec-09 22:30N 38°37' W 009°49'510.6
2017-Dec-09 22:00N 38°32' W 009°47'510.6
2017-Dec-09 21:30N 38°27' W 009°46'510.4
2017-Dec-09 21:00N 38°22' W 009°44'510.6
2017-Dec-09 20:30N 38°17' W 009°42'610.8
2017-Dec-09 19:57N 38°11' W 009°41'510.8
2017-Dec-09 19:30N 38°06' W 009°39'510.7
2017-Dec-09 19:00N 38°01' W 009°37'510.6
2017-Dec-09 18:29N 37°56' W 009°36'510.4
2017-Dec-09 18:00N 37°51' W 009°35'510.5
2017-Dec-09 17:29N 37°46' W 009°33'  

Dump ship's entire track history